Time;durP1;ratioP1;P1;durP2;ratioP2;P2;SDS_P1;SDS_P2;PMS_P1;PMS_P2;Temp;Humidity;BMP_temperature;BMP_pressure;BME280_temperature;BME280_humidity;BME280_pressure;Samples;Min_cycle;Max_cycle;Signal;HPM_P1;HPM_P2
2022/09/13 00:37:26;;;;;;;2.50;2.20;;;13.60;97.30;;;;;;5008751;28;20563;-92
2022/09/13 00:39:53;;;;;;;3.17;2.97;;;13.60;97.30;;;;;;5001613;28;20539;-92
2022/09/13 00:42:25;;;;;;;8.77;2.90;;;13.50;97.30;;;;;;4993594;28;21014;-91
2022/09/13 00:45:17;;;;;;;2.53;2.33;;;13.50;97.30;;;;;;4993967;28;20831;-92
2022/09/13 00:47:57;;;;;;;8.93;4.40;;;13.50;97.30;;;;;;4970993;28;20413;-92
2022/09/13 00:50:46;;;;;;;2.17;2.00;;;13.50;97.30;;;;;;5009688;28;20428;-92
2022/09/13 00:53:21;;;;;;;5.13;3.90;;;13.50;97.30;;;;;;5010665;28;20503;-91
2022/09/13 00:55:59;;;;;;;2.80;2.60;;;13.50;97.30;;;;;;4993316;28;20937;-92
2022/09/13 00:58:32;;;;;;;3.43;3.23;;;13.50;97.30;;;;;;4993244;28;20559;-91
2022/09/13 01:01:01;;;;;;;2.80;2.20;;;13.50;97.30;;;;;;5002272;28;20420;-91
2022/09/13 01:03:29;;;;;;;2.83;2.63;;;13.50;97.30;;;;;;4992934;28;20435;-91
2022/09/13 01:06:09;;;;;;;2.50;2.20;;;13.40;97.30;;;;;;4992921;28;20440;-91
2022/09/13 01:08:37;;;;;;;3.10;2.47;;;13.40;97.30;;;;;;4982584;28;20415;-91
2022/09/13 01:11:10;;;;;;;1.80;1.70;;;13.40;97.30;;;;;;4992921;28;20946;-92
2022/09/13 01:13:37;;;;;;;3.33;2.93;;;13.40;97.30;;;;;;4993127;28;20473;-91
2022/09/13 01:16:03;;;;;;;1.97;1.80;;;13.40;97.30;;;;;;4992537;28;21004;-91
2022/09/13 01:18:28;;;;;;;2.43;2.30;;;13.40;97.30;;;;;;4992879;28;20460;-91
2022/09/13 01:21:09;;;;;;;3.83;2.30;;;13.40;97.30;;;;;;4992873;28;20196;-92
2022/09/13 01:24:19;;;;;;;2.97;2.23;;;13.30;97.30;;;;;;4992849;28;20181;-91
2022/09/13 01:27:08;;;;;;;2.53;2.27;;;13.30;97.30;;;;;;5000507;28;20490;-91
2022/09/13 01:30:00;;;;;;;1.87;1.70;;;13.30;97.30;;;;;;4992804;28;20412;-90
2022/09/13 01:32:40;;;;;;;2.63;2.43;;;13.30;97.30;;;;;;5010588;28;20468;-92
2022/09/13 01:35:22;;;;;;;1.80;1.63;;;13.30;97.30;;;;;;4993945;28;20424;-91
2022/09/13 01:38:05;;;;;;;3.57;2.60;;;13.30;97.30;;;;;;5012478;28;20840;-91
2022/09/13 01:41:00;;;;;;;4.93;3.40;;;13.30;97.30;;;;;;5015796;28;20423;-91
2022/09/13 01:43:50;;;;;;;2.70;2.17;;;13.30;97.30;;;;;;5032648;28;20415;-92
2022/09/13 01:46:25;;;;;;;2.50;2.30;;;13.20;97.30;;;;;;4999915;28;20469;-91
2022/09/13 01:48:56;;;;;;;2.57;1.60;;;13.20;97.30;;;;;;5015767;28;20526;-93
2022/09/13 01:51:22;;;;;;;2.30;2.00;;;13.20;97.30;;;;;;5015816;28;20422;-90
2022/09/13 01:54:12;;;;;;;3.57;2.40;;;13.20;97.30;;;;;;5015671;28;20936;-92
2022/09/13 01:56:48;;;;;;;2.80;2.07;;;13.10;97.30;;;;;;5020373;28;20279;-92
2022/09/13 01:59:36;;;;;;;2.67;2.47;;;13.10;97.30;;;;;;5015718;28;20462;-90
2022/09/13 02:02:10;;;;;;;7.07;4.57;;;13.10;97.30;;;;;;5021276;28;20415;-91
2022/09/13 02:04:47;;;;;;;3.27;2.43;;;13.00;97.30;;;;;;5033183;28;20444;-91
2022/09/13 02:07:18;;;;;;;3.23;1.63;;;13.00;97.30;;;;;;5005894;28;20436;-91
2022/09/13 02:09:50;;;;;;;4.03;3.63;;;13.00;97.30;;;;;;5010455;28;20919;-88
2022/09/13 02:12:23;;;;;;;2.73;2.53;;;12.90;97.30;;;;;;5014035;28;20806;-88
2022/09/13 02:14:57;;;;;;;4.40;2.37;;;12.90;97.30;;;;;;5015468;28;20434;-92
2022/09/13 02:17:27;;;;;;;3.47;2.97;;;12.90;97.30;;;;;;5013364;28;20449;-91
2022/09/13 02:20:16;;;;;;;6.67;2.60;;;12.90;97.30;;;;;;5015330;28;20463;-91
2022/09/13 02:22:48;;;;;;;1.77;1.67;;;12.90;97.30;;;;;;5024998;28;20502;-91
2022/09/13 02:25:17;;;;;;;2.73;2.60;;;12.90;97.30;;;;;;5032814;28;20418;-91
2022/09/13 02:27:46;;;;;;;5.80;4.10;;;12.90;97.30;;;;;;5033073;28;20443;-91
2022/09/13 02:30:13;;;;;;;3.87;2.67;;;12.90;97.30;;;;;;5014904;28;20430;-90
2022/09/13 02:32:44;;;;;;;3.17;2.97;;;12.90;97.30;;;;;;5015169;28;20602;-91
2022/09/13 02:35:18;;;;;;;3.67;3.00;;;12.90;97.30;;;;;;5032221;28;20428;-91
2022/09/13 02:37:51;;;;;;;3.23;2.30;;;12.90;97.30;;;;;;5015013;28;20501;-91
2022/09/13 02:40:22;;;;;;;4.77;2.80;;;12.90;97.30;;;;;;5032789;28;20505;-91
2022/09/13 02:42:57;;;;;;;2.50;1.83;;;12.90;97.30;;;;;;5022421;28;20429;-91
2022/09/13 02:45:32;;;;;;;4.23;2.70;;;12.90;97.30;;;;;;5018973;28;20415;-91
2022/09/13 02:48:16;;;;;;;1.77;1.63;;;12.90;97.30;;;;;;5021483;28;20426;-91
2022/09/13 02:51:14;;;;;;;3.83;2.80;;;12.80;97.30;;;;;;5029854;28;20424;-92
2022/09/13 02:54:01;;;;;;;3.90;3.70;;;12.80;97.30;;;;;;5032473;28;20414;-91
2022/09/13 02:56:50;;;;;;;5.90;2.50;;;12.80;97.30;;;;;;5018143;28;20535;-91
2022/09/13 02:59:19;;;;;;;2.53;2.33;;;12.70;97.30;;;;;;5005503;28;20537;-91
2022/09/13 03:01:51;;;;;;;2.40;2.17;;;12.80;97.30;;;;;;5014095;28;20430;-89
2022/09/13 03:04:17;;;;;;;2.10;1.97;;;12.80;97.30;;;;;;5014533;28;20421;-91
2022/09/13 03:06:43;;;;;;;2.87;2.17;;;12.80;97.30;;;;;;5031915;28;20511;-90
2022/09/13 03:09:09;;;;;;;3.30;3.10;;;12.80;97.30;;;;;;5014610;28;20614;-92
2022/09/13 03:12:04;;;;;;;1.77;1.70;;;12.80;97.30;;;;;;5031983;28;20682;-91
2022/09/13 03:14:57;;;;;;;2.33;1.57;;;12.80;97.30;;;;;;5031900;28;20477;-91
2022/09/13 03:17:22;;;;;;;2.63;2.43;;;12.80;97.30;;;;;;5023144;28;20447;-91
2022/09/13 03:20:08;;;;;;;6.63;2.27;;;12.70;97.30;;;;;;5013104;28;20462;-89
2022/09/13 03:22:44;;;;;;;4.10;2.83;;;12.70;97.30;;;;;;5029193;28;20231;-89
2022/09/13 03:25:33;;;;;;;2.10;1.90;;;12.70;97.30;;;;;;5012409;28;20419;-88
2022/09/13 03:28:15;;;;;;;2.40;2.20;;;12.70;97.30;;;;;;5015832;28;20427;-90
2022/09/13 03:30:49;;;;;;;4.83;2.07;;;12.70;97.30;;;;;;5015100;28;20427;-90
2022/09/13 03:33:45;;;;;;;1.97;1.60;;;12.60;97.30;;;;;;4999592;28;20427;-89
2022/09/13 03:36:35;;;;;;;3.17;2.07;;;12.60;97.30;;;;;;5009029;28;20909;-89
2022/09/13 03:39:24;;;;;;;2.10;1.87;;;12.60;97.30;;;;;;5012860;28;20533;-89
2022/09/13 03:41:55;;;;;;;7.53;2.83;;;12.60;97.30;;;;;;5017030;28;20952;-89
2022/09/13 03:44:24;;;;;;;4.23;2.37;;;12.70;97.30;;;;;;5013662;28;21088;-90
2022/09/13 03:46:56;;;;;;;4.63;2.73;;;12.70;97.30;;;;;;5031012;28;20439;-90
2022/09/13 03:49:25;;;;;;;1.70;1.60;;;12.70;97.30;;;;;;5001231;28;20479;-89
2022/09/13 03:51:51;;;;;;;3.97;2.97;;;12.70;97.30;;;;;;4998445;28;20423;-90
2022/09/13 03:54:23;;;;;;;3.87;2.47;;;12.60;97.30;;;;;;5015797;28;20427;-89
2022/09/13 03:57:24;;;;;;;2.30;1.73;;;12.70;97.30;;;;;;5013482;28;20447;-90
2022/09/13 03:59:52;;;;;;;3.07;2.27;;;12.70;97.30;;;;;;4966154;28;20472;-90
2022/09/13 04:02:20;;;;;;;8.77;3.90;;;12.70;97.30;;;;;;5005842;28;20510;-89
2022/09/13 04:04:47;;;;;;;1.93;1.83;;;12.70;97.30;;;;;;5015040;28;20466;-90
2022/09/13 04:07:16;;;;;;;3.90;3.10;;;12.80;97.30;;;;;;5020511;28;20501;-90
2022/09/13 04:09:41;;;;;;;4.90;2.40;;;12.80;97.30;;;;;;5006757;28;20533;-90
2022/09/13 04:12:10;;;;;;;7.27;4.30;;;12.80;97.30;;;;;;5021581;28;20972;-90
2022/09/13 04:14:36;;;;;;;1.97;1.87;;;12.80;97.30;;;;;;5012929;28;20212;-90
2022/09/13 04:17:02;;;;;;;5.27;2.87;;;12.70;97.30;;;;;;5007250;28;20578;-90
2022/09/13 04:19:28;;;;;;;2.30;2.10;;;12.70;97.30;;;;;;5032907;28;20208;-89
2022/09/13 04:21:55;;;;;;;3.50;2.17;;;12.70;97.30;;;;;;5031397;28;20417;-90
2022/09/13 04:24:23;;;;;;;1.90;1.80;;;12.70;97.30;;;;;;5030372;28;20172;-90
2022/09/13 05:32:57;;;;;;;4.50;2.10;;;13.20;97.30;;;;;;5022553;28;20795;-94
2022/09/13 05:35:26;;;;;;;6.23;2.90;;;13.30;97.30;;;;;;5026134;28;20431;-93
2022/09/13 05:37:57;;;;;;;6.07;2.13;;;13.30;97.30;;;;;;5021971;28;20451;-92
2022/09/13 05:40:26;;;;;;;2.10;1.60;;;13.40;97.30;;;;;;4996871;28;20423;-93
2022/09/13 05:42:54;;;;;;;4.00;3.03;;;13.50;97.30;;;;;;5004943;28;20447;-92
2022/09/13 05:45:46;;;;;;;2.43;1.63;;;13.50;97.30;;;;;;5005654;28;20597;-94
2022/09/13 05:48:14;;;;;;;3.30;2.10;;;13.60;97.30;;;;;;4982244;28;20435;-94
2022/09/13 05:50:47;;;;;;;8.73;3.30;;;13.70;97.30;;;;;;5004446;28;20431;-93
2022/09/13 05:53:16;;;;;;;8.53;4.07;;;13.80;97.30;;;;;;5003695;28;20447;-93
2022/09/13 05:55:45;;;;;;;7.07;2.97;;;13.90;97.30;;;;;;5003202;28;20480;-93
2022/09/13 05:58:26;;;;;;;3.50;2.47;;;13.90;97.30;;;;;;5001765;28;20932;-93
2022/09/13 06:00:56;;;;;;;2.30;1.67;;;14.00;97.30;;;;;;5004540;28;20424;-93
2022/09/13 06:03:27;;;;;;;4.63;3.07;;;14.10;97.30;;;;;;5004034;28;20416;-93
2022/09/13 06:06:07;;;;;;;4.80;3.20;;;14.20;97.30;;;;;;5004608;28;20487;-94
2022/09/13 06:08:36;;;;;;;4.40;4.13;;;14.30;97.30;;;;;;5004567;28;21025;-94
2022/09/13 06:11:15;;;;;;;3.77;3.00;;;14.40;97.30;;;;;;5003591;28;20463;-93
2022/09/13 06:13:47;;;;;;;6.10;4.37;;;14.40;97.30;;;;;;5003484;28;20427;-93
2022/09/13 06:16:16;;;;;;;5.80;3.60;;;14.50;97.30;;;;;;5004280;28;21086;-94
2022/09/13 06:19:07;;;;;;;2.60;1.93;;;14.60;97.30;;;;;;5004103;28;20470;-93
2022/09/13 06:21:36;;;;;;;3.97;3.20;;;14.60;97.30;;;;;;5006499;28;20423;-93
2022/09/13 06:24:28;;;;;;;3.20;2.07;;;14.70;97.30;;;;;;4991948;28;20442;-92
2022/09/13 06:26:57;;;;;;;3.73;1.90;;;14.80;97.30;;;;;;4998062;28;20436;-93
2022/09/13 06:29:25;;;;;;;2.37;2.17;;;14.80;97.30;;;;;;4999171;28;20424;-93
2022/09/13 06:31:57;;;;;;;8.90;2.03;;;14.80;97.30;;;;;;4990549;28;20460;-93
2022/09/13 06:34:57;;;;;;;2.43;2.00;;;14.80;97.30;;;;;;4980000;28;20484;-93
2022/09/13 06:37:26;;;;;;;2.27;2.10;;;14.90;97.30;;;;;;4979359;28;20437;-92
2022/09/13 06:39:55;;;;;;;3.77;1.93;;;14.90;97.30;;;;;;4978715;28;20452;-92
2022/09/13 06:42:46;;;;;;;3.30;2.80;;;14.80;97.30;;;;;;4980095;28;20421;-92
2022/09/13 06:45:15;;;;;;;2.60;2.40;;;14.80;97.30;;;;;;4976288;28;20421;-92
2022/09/13 06:48:06;;;;;;;5.60;2.60;;;14.80;97.30;;;;;;4978803;28;20448;-92
2022/09/13 06:50:35;;;;;;;5.47;4.63;;;14.90;97.30;;;;;;4969578;28;20500;-92
2022/09/13 06:53:04;;;;;;;2.17;1.80;;;14.90;97.30;;;;;;4974599;28;20413;-92
2022/09/13 06:55:37;;;;;;;4.20;3.40;;;15.00;97.30;;;;;;4977477;28;20429;-91
2022/09/13 06:58:06;;;;;;;2.73;2.40;;;15.00;97.30;;;;;;4977158;28;20417;-92
2022/09/13 07:00:45;;;;;;;;;;;;;;;;;;;;;
2022/09/13 07:03:16;;;;;;;4.00;2.33;;;14.90;97.30;;;;;;4992220;28;20409;-92
2022/09/13 07:05:45;;;;;;;5.23;3.77;;;15.00;97.30;;;;;;4978694;28;20429;-92
2022/09/13 07:08:16;;;;;;;7.77;4.73;;;15.00;97.30;;;;;;4978364;28;20413;-92
2022/09/13 07:10:45;;;;;;;5.47;2.13;;;15.00;97.30;;;;;;4976393;28;20433;-93
2022/09/13 07:13:16;;;;;;;2.93;2.20;;;15.00;97.30;;;;;;4992494;28;20452;-93
2022/09/13 07:15:45;;;;;;;8.93;2.83;;;15.00;97.30;;;;;;4976054;28;20440;-92
2022/09/13 07:18:16;;;;;;;8.17;3.33;;;15.00;97.30;;;;;;4977539;28;20424;-93
2022/09/13 07:20:45;;;;;;;3.00;2.80;;;15.00;97.30;;;;;;4995079;28;20417;-92
2022/09/13 07:23:37;;;;;;;10.43;6.17;;;15.00;97.30;;;;;;4975491;28;20421;-93
2022/09/13 07:26:07;;;;;;;7.77;4.33;;;15.00;97.30;;;;;;4978042;28;20433;-92
2022/09/13 07:28:37;;;;;;;3.20;2.50;;;15.00;97.30;;;;;;4996087;28;20437;-92
2022/09/13 07:31:36;;;;;;;7.40;6.23;;;15.00;97.30;;;;;;4980034;28;20421;-92
2022/09/13 07:34:25;;;;;;;8.43;3.37;;;15.00;97.30;;;;;;4983836;28;20451;-92
2022/09/13 07:37:07;;;;;;;4.80;2.10;;;15.00;97.30;;;;;;4986724;28;20432;-92
2022/09/13 07:39:36;;;;;;;9.90;4.37;;;15.00;97.30;;;;;;4994886;28;20464;-92
2022/09/13 07:42:07;;;;;;;4.50;2.60;;;15.10;97.30;;;;;;4995834;28;20499;-93
2022/09/13 07:44:36;;;;;;;3.73;2.30;;;15.10;97.30;;;;;;4997323;28;20444;-92
2022/09/13 07:47:07;;;;;;;3.13;2.90;;;15.10;97.30;;;;;;5002985;28;20428;-92
2022/09/13 07:49:36;;;;;;;4.73;3.07;;;15.20;97.30;;;;;;5012898;28;20435;-92
2022/09/13 07:52:07;;;;;;;4.20;3.37;;;15.20;97.30;;;;;;5015170;28;20428;-92
2022/09/13 07:54:36;;;;;;;7.13;4.60;;;15.20;97.30;;;;;;5012713;28;20419;-93
2022/09/13 07:57:05;;;;;;;4.27;3.63;;;15.30;97.30;;;;;;4997398;28;20440;-92
2022/09/13 07:59:34;;;;;;;5.03;3.07;;;15.40;97.30;;;;;;4995718;28;20467;-92
2022/09/13 08:02:05;;;;;;;6.00;3.50;;;15.40;97.30;;;;;;4996273;28;20428;-92
2022/09/13 08:07:45;;;;;;;4.30;3.50;;;15.60;97.30;;;;;;4989471;28;20531;-93
2022/09/13 08:10:14;;;;;;;3.57;3.00;;;15.60;97.30;;;;;;4995751;28;20502;-94
2022/09/13 08:12:44;;;;;;;4.30;2.63;;;15.70;97.30;;;;;;4995499;28;20738;-92
2022/09/13 08:15:53;;;;;;;8.80;3.30;;;15.70;97.30;;;;;;4995544;28;20511;-92
2022/09/13 08:18:24;;;;;;;4.30;3.77;;;15.80;97.30;;;;;;4988045;28;20456;-93
2022/09/13 08:20:58;;;;;;;3.03;2.73;;;15.90;97.30;;;;;;4997273;28;20794;-92
2022/09/13 08:23:27;;;;;;;7.17;2.47;;;15.90;97.30;;;;;;4997176;28;21000;-92
2022/09/13 08:26:05;;;;;;;3.17;2.30;;;16.00;97.30;;;;;;4997294;28;20515;-92
2022/09/13 08:28:53;;;;;;;7.20;3.37;;;16.00;97.30;;;;;;4997272;28;20435;-93
2022/09/13 08:31:28;;;;;;;5.53;2.87;;;16.10;97.30;;;;;;4983567;28;20476;-92
2022/09/13 08:33:56;;;;;;;5.53;2.43;;;16.10;97.30;;;;;;4997716;28;20434;-92
2022/09/13 08:36:26;;;;;;;6.73;2.93;;;16.20;97.30;;;;;;4993439;28;20468;-92
2022/09/13 08:38:58;;;;;;;4.40;3.23;;;16.30;97.30;;;;;;4988372;28;20510;-92
2022/09/13 08:41:46;;;;;;;4.53;2.30;;;16.40;97.30;;;;;;4997996;28;20420;-93
2022/09/13 08:44:36;;;;;;;6.13;3.00;;;16.50;97.30;;;;;;4996504;28;20472;-93
2022/09/13 08:47:26;;;;;;;5.27;3.70;;;16.60;97.30;;;;;;4988778;28;20495;-93
2022/09/13 08:50:36;;;;;;;6.70;2.77;;;16.70;97.30;;;;;;4997059;28;20445;-93
2022/09/13 08:53:44;;;;;;;4.87;3.60;;;16.80;97.30;;;;;;4982723;28;20427;-92
2022/09/13 08:56:22;;;;;;;4.53;2.43;;;16.80;97.30;;;;;;4999013;28;20480;-93
2022/09/13 08:59:17;;;;;;;3.57;2.60;;;16.90;97.30;;;;;;4998909;28;20503;-92
2022/09/13 09:02:05;;;;;;;4.77;2.73;;;17.00;97.30;;;;;;4994800;28;20396;-92
2022/09/13 09:04:57;;;;;;;6.80;3.50;;;17.00;97.30;;;;;;5019053;28;20432;-93
2022/09/13 09:07:46;;;;;;;4.17;2.43;;;17.10;97.30;;;;;;4998474;28;20460;-93
2022/09/13 09:10:27;;;;;;;4.33;4.03;;;17.10;97.30;;;;;;5006349;28;20981;-93
2022/09/13 09:13:16;;;;;;;4.03;2.50;;;17.20;97.30;;;;;;4989789;28;20424;-93
2022/09/13 09:19:33;;;;;;;3.50;2.30;;;17.30;97.30;;;;;;4933380;29;20547;-91
2022/09/13 09:22:43;;;;;;;2.80;2.30;;;17.30;97.30;;;;;;4933273;29;20778;-93
2022/09/13 09:25:47;;;;;;;4.10;3.10;;;17.40;97.30;;;;;;4961548;28;20465;-92
2022/09/13 09:28:47;;;;;;;2.23;2.10;;;17.50;97.30;;;;;;4920095;29;20432;-92
2022/09/13 09:36:18;;;;;;;5.83;3.10;;;17.70;97.30;;;;;;4887905;29;20482;-93
2022/09/13 09:39:28;;;;;;;;;;;;;;;;;;;;;
2022/09/13 09:45:45;;;;;;;6.03;3.83;;;18.30;97.30;;;;;;4854899;29;20454;-93
2022/09/13 09:48:24;;;;;;;3.10;2.43;;;18.60;97.30;;;;;;4923736;29;20416;-92
2022/09/13 09:51:09;;;;;;;5.23;2.17;;;18.80;97.30;;;;;;4941679;28;20476;-93
2022/09/13 09:53:49;;;;;;;3.17;2.13;;;19.00;97.30;;;;;;4996591;28;20979;-93
2022/09/13 09:56:25;;;;;;;5.70;2.80;;;19.20;97.30;;;;;;5009492;28;20415;-93
2022/09/13 09:59:18;;;;;;;3.20;2.07;;;19.40;97.30;;;;;;5006623;28;20758;-93
2022/09/13 10:01:45;;;;;;;2.77;2.47;;;19.50;97.30;;;;;;4996478;28;20468;-94
2022/09/13 10:04:17;;;;;;;2.33;1.73;;;19.60;97.30;;;;;;5008729;28;20429;-93
2022/09/13 10:06:45;;;;;;;4.10;3.10;;;19.70;97.30;;;;;;5011939;28;20490;-92
2022/09/13 10:09:29;;;;;;;2.20;2.00;;;19.80;97.30;;;;;;5012470;28;20419;-95
2022/09/13 10:11:58;;;;;;;3.00;2.73;;;19.90;97.30;;;;;;5008071;28;20463;-93
2022/09/13 10:14:51;;;;;;;3.80;2.80;;;19.90;97.30;;;;;;5012848;28;20417;-93
2022/09/13 10:17:24;;;;;;;3.30;2.00;;;20.00;97.30;;;;;;5006949;28;20436;-93
2022/09/13 10:19:58;;;;;;;3.80;2.83;;;20.10;97.30;;;;;;5007948;28;20487;-93
2022/09/13 10:22:28;;;;;;;2.50;2.30;;;20.20;97.30;;;;;;5005890;28;20419;-92
2022/09/13 10:25:28;;;;;;;3.23;3.03;;;20.30;97.30;;;;;;5002361;28;20476;-93
2022/09/13 10:28:06;;;;;;;3.73;2.20;;;20.40;97.30;;;;;;5025432;23;20502;-89
2022/09/13 10:31:18;;;;;;;2.60;2.40;;;20.50;97.30;;;;;;5008851;28;20588;-90
2022/09/13 10:34:15;;;;;;;2.70;1.60;;;20.60;97.30;;;;;;5016920;28;20422;-90
2022/09/13 10:37:18;;;;;;;2.93;2.10;;;20.80;97.30;;;;;;5021362;28;20441;-91
2022/09/13 10:40:07;;;;;;;3.20;2.20;;;20.90;97.30;;;;;;5036048;28;20495;-90
2022/09/13 10:42:36;;;;;;;2.70;1.30;;;20.90;97.10;;;;;;5035986;28;20429;-90
2022/09/13 10:45:18;;;;;;;2.43;1.83;;;21.00;96.60;;;;;;5035538;28;20717;-89
2022/09/13 10:47:46;;;;;;;2.53;1.90;;;21.00;96.80;;;;;;5035368;28;20438;-91
2022/09/13 10:50:17;;;;;;;2.00;1.60;;;21.00;96.60;;;;;;5035231;28;20513;-90
2022/09/13 10:52:45;;;;;;;1.83;1.60;;;21.00;96.60;;;;;;5052051;28;20487;-90
2022/09/13 10:55:17;;;;;;;2.10;1.77;;;21.00;96.10;;;;;;5052163;28;20422;-90
2022/09/13 10:58:04;;;;;;;2.10;1.57;;;21.10;96.20;;;;;;5035296;28;20449;-90
2022/09/13 11:00:51;;;;;;;2.23;1.93;;;21.10;96.10;;;;;;5037459;28;20430;-90
2022/09/13 11:03:51;;;;;;;4.87;2.17;;;21.10;95.20;;;;;;5039946;28;20418;-90
2022/09/13 11:06:36;;;;;;;3.70;1.77;;;21.10;95.40;;;;;;5034749;28;20936;-90
2022/09/13 11:09:12;;;;;;;1.70;1.57;;;21.10;95.70;;;;;;5034555;28;20422;-90
2022/09/13 11:11:47;;;;;;;1.60;1.50;;;21.10;95.90;;;;;;5040334;28;20671;-91
2022/09/13 11:14:31;;;;;;;;;;;;;;;;;;;;;
2022/09/13 11:17:15;;;;;;;3.83;2.00;;;21.30;95.40;;;;;;5039601;28;20439;-91
2022/09/13 11:20:12;;;;;;;2.20;1.53;;;21.40;96.10;;;;;;5023776;28;20466;-89
2022/09/13 11:22:59;;;;;;;2.23;1.83;;;21.60;96.00;;;;;;5049015;28;20422;-87
2022/09/13 11:25:36;;;;;;;2.33;1.70;;;21.70;95.50;;;;;;5043258;28;20927;-88
2022/09/13 11:28:23;;;;;;;2.30;2.17;;;21.80;94.60;;;;;;5057399;28;20556;-88
2022/09/13 11:31:06;;;;;;;2.33;1.70;;;21.90;94.40;;;;;;5065219;28;20426;-88
2022/09/13 11:34:08;;;;;;;5.93;2.07;;;22.00;94.80;;;;;;5026170;28;20426;-89
2022/09/13 11:37:15;;;;;;;1.20;1.10;;;22.00;94.80;;;;;;5030295;28;20471;-88
2022/09/13 11:40:09;;;;;;;1.80;1.40;;;22.00;93.80;;;;;;5029291;28;20462;-89
2022/09/13 11:43:17;;;;;;;2.30;2.20;;;22.00;93.80;;;;;;5024829;28;20513;-88
2022/09/13 11:46:14;;;;;;;1.57;1.50;;;22.10;94.20;;;;;;4983648;28;20422;-89
2022/09/13 11:48:39;;;;;;;2.60;1.90;;;22.20;94.60;;;;;;5033528;28;20434;-90
2022/09/13 11:51:34;;;;;;;4.43;2.27;;;22.40;94.20;;;;;;5038401;28;20422;-92
2022/09/13 11:54:18;;;;;;;2.13;1.70;;;22.50;93.10;;;;;;5043453;28;20536;-90
2022/09/13 11:56:51;;;;;;;1.83;1.77;;;22.70;93.70;;;;;;5050265;28;21007;-91
2022/09/13 11:59:22;;;;;;;2.23;1.90;;;22.90;93.30;;;;;;5033336;28;20882;-90
2022/09/13 12:01:54;;;;;;;2.07;1.60;;;23.10;92.30;;;;;;5051099;28;20504;-90
2022/09/13 12:04:27;;;;;;;4.47;2.00;;;23.20;92.20;;;;;;5033175;28;20954;-91
2022/09/13 12:06:59;;;;;;;2.83;1.83;;;23.40;92.20;;;;;;5033108;28;20474;-91
2022/09/13 12:09:32;;;;;;;3.10;1.87;;;23.50;90.50;;;;;;5047547;28;20495;-92
2022/09/13 12:12:12;;;;;;;2.87;2.07;;;23.60;90.00;;;;;;5031715;28;20472;-91
2022/09/13 12:14:57;;;;;;;2.23;1.37;;;23.60;89.60;;;;;;5048556;28;20428;-91
2022/09/13 12:17:42;;;;;;;1.80;1.70;;;23.60;89.60;;;;;;5027624;28;20995;-89
2022/09/13 12:20:18;;;;;;;2.77;1.60;;;23.40;89.60;;;;;;5032650;28;20466;-91
2022/09/13 12:22:46;;;;;;;3.03;1.83;;;23.30;90.80;;;;;;5045215;28;20792;-91
2022/09/13 12:25:21;;;;;;;3.47;1.90;;;23.30;91.10;;;;;;5041361;28;20451;-89
2022/09/13 12:28:01;;;;;;;2.30;1.90;;;23.30;90.60;;;;;;5057692;28;20963;-91
2022/09/13 12:30:38;;;;;;;4.20;1.50;;;23.40;91.10;;;;;;5051946;28;20422;-88
2022/09/13 12:33:05;;;;;;;2.07;1.67;;;23.40;91.30;;;;;;5052046;28;20414;-89
2022/09/13 12:35:42;;;;;;;2.33;1.50;;;23.30;91.30;;;;;;5050597;28;20592;-89
2022/09/13 12:38:32;;;;;;;1.50;1.40;;;23.20;91.80;;;;;;5079709;28;20457;-89
2022/09/13 12:41:04;;;;;;;2.43;2.23;;;23.10;92.70;;;;;;5031261;28;20663;-89
2022/09/13 12:43:58;;;;;;;3.23;2.53;;;23.00;92.50;;;;;;5032488;28;20441;-90
2022/09/13 12:46:36;;;;;;;1.57;1.40;;;22.90;92.70;;;;;;5032368;28;20440;-90
2022/09/13 12:49:43;;;;;;;2.77;2.00;;;22.80;92.50;;;;;;5050541;28;20418;-91
2022/09/13 12:52:44;;;;;;;2.00;1.60;;;22.80;93.10;;;;;;5043358;28;20422;-92
2022/09/13 12:55:55;;;;;;;2.30;1.50;;;22.70;92.50;;;;;;5032300;28;20426;-90
2022/09/13 12:58:30;;;;;;;3.20;1.60;;;22.60;92.10;;;;;;4971507;28;20440;-90
2022/09/13 13:00:55;;;;;;;1.87;1.40;;;22.60;92.40;;;;;;4988441;28;20435;-91
2022/09/13 13:03:26;;;;;;;2.00;1.53;;;22.60;90.90;;;;;;5019784;28;20789;-89
2022/09/13 13:06:19;;;;;;;1.53;1.33;;;22.60;91.20;;;;;;5032566;28;20183;-90
2022/09/13 13:08:51;;;;;;;1.90;1.33;;;22.60;91.90;;;;;;5032683;28;20422;-90
2022/09/13 13:11:22;;;;;;;1.77;1.30;;;22.60;91.60;;;;;;5032152;28;20476;-90
2022/09/13 13:14:08;;;;;;;1.50;1.40;;;22.60;91.90;;;;;;5034007;28;20513;-90
2022/09/13 13:16:39;;;;;;;1.37;1.37;;;22.60;91.80;;;;;;5017883;28;20447;-91
2022/09/13 13:19:29;;;;;;;1.40;1.30;;;22.60;91.90;;;;;;5041100;28;20497;-90
2022/09/13 13:22:16;;;;;;;2.03;1.73;;;22.60;91.20;;;;;;5027057;28;20447;-91
2022/09/13 13:24:45;;;;;;;1.17;1.13;;;22.70;90.90;;;;;;5048101;28;20414;-90
2022/09/13 13:27:35;;;;;;;4.20;1.80;;;22.70;90.60;;;;;;5030940;28;20440;-92
2022/09/13 13:30:41;;;;;;;1.47;1.10;;;22.80;90.50;;;;;;5026892;28;20414;-91
2022/09/13 13:33:19;;;;;;;2.00;1.90;;;22.80;90.40;;;;;;5027354;28;20856;-90
2022/09/13 13:35:45;;;;;;;1.10;0.90;;;22.90;90.80;;;;;;5025723;28;20413;-90
2022/09/13 13:38:21;;;;;;;1.73;1.47;;;23.00;90.90;;;;;;5037924;28;20453;-91
2022/09/13 13:40:49;;;;;;;1.63;1.40;;;23.00;89.80;;;;;;5038208;28;20187;-90
2022/09/13 13:43:36;;;;;;;2.30;2.10;;;23.20;91.00;;;;;;5035736;28;20449;-89
2022/09/13 13:46:10;;;;;;;1.50;1.50;;;23.40;90.10;;;;;;5047654;28;20568;-90
2022/09/13 13:48:39;;;;;;;2.90;1.60;;;23.70;90.90;;;;;;5055704;28;20463;-90
2022/09/13 13:51:10;;;;;;;1.27;1.17;;;24.10;90.30;;;;;;5037741;28;20413;-90
2022/09/13 13:53:45;;;;;;;1.63;1.10;;;24.30;89.10;;;;;;5054387;28;20414;-90
2022/09/13 13:56:54;;;;;;;2.20;1.67;;;24.60;88.30;;;;;;5036526;28;20430;-90
2022/09/13 14:00:11;;;;;;;2.07;1.37;;;24.90;87.50;;;;;;5035854;28;20461;-89
2022/09/13 14:02:52;;;;;;;1.00;0.90;;;25.30;86.10;;;;;;5052263;28;20501;-90
2022/09/13 14:05:43;;;;;;;1.17;1.17;;;25.60;85.40;;;;;;5037769;28;20446;-90
2022/09/13 14:17:12;;;;;;;2.87;1.23;;;26.10;84.40;;;;;;5022150;28;20435;-91
2022/09/13 14:23:32;;;;;;;1.30;1.20;;;25.90;83.40;;;;;;5024310;28;20426;-89
2022/09/13 14:26:03;;;;;;;1.33;1.13;;;25.60;83.80;;;;;;5017509;28;20418;-89
2022/09/13 14:28:31;;;;;;;1.80;1.30;;;25.40;84.50;;;;;;5014948;28;20517;-91
2022/09/13 14:31:32;;;;;;;2.67;2.50;;;25.10;84.80;;;;;;5003786;28;20562;-90
2022/09/13 14:35:02;;;;;;;1.27;1.27;;;24.90;84.80;;;;;;5016347;28;20423;-92
2022/09/13 14:38:14;;;;;;;;;;;;;;;;;;;;;
2022/09/13 14:41:52;;;;;;;1.33;1.23;;;24.30;86.10;;;;;;5031897;28;20766;-91
2022/09/13 14:43:53;;;;;;;2.03;1.40;;;24.20;86.10;;;;;;5008619;28;20419;-90
2022/09/13 14:51:35;;;;;;;2.30;1.47;;;24.00;87.60;;;;;;5029566;28;20524;-90
2022/09/13 14:54:14;;;;;;;1.50;1.40;;;23.90;87.90;;;;;;5013499;28;20469;-91
2022/09/13 14:56:56;;;;;;;3.47;1.53;;;23.80;88.00;;;;;;5015850;28;20986;-91
2022/09/13 14:59:27;;;;;;;2.23;1.63;;;23.80;88.20;;;;;;5031592;28;20977;-90
2022/09/13 15:01:52;;;;;;;2.70;1.03;;;23.80;88.40;;;;;;5033327;28;20430;-90
2022/09/13 15:04:20;;;;;;;1.67;1.40;;;23.70;88.50;;;;;;5051223;28;20417;-90
2022/09/13 15:06:45;;;;;;;1.47;1.37;;;23.70;88.50;;;;;;5033312;28;20206;-90
2022/09/13 15:09:11;;;;;;;1.37;1.27;;;23.70;89.10;;;;;;5051321;28;20809;-90
2022/09/13 15:11:54;;;;;;;1.60;1.53;;;23.60;88.80;;;;;;5035126;28;20222;-90
2022/09/13 15:14:24;;;;;;;4.00;1.87;;;23.60;88.70;;;;;;5034627;28;20176;-91
2022/09/13 15:17:13;;;;;;;1.87;1.30;;;23.60;89.20;;;;;;5027684;28;20437;-89
2022/09/13 15:19:43;;;;;;;4.83;1.47;;;23.60;89.10;;;;;;5029598;28;20455;-91
2022/09/13 15:22:26;;;;;;;1.67;1.27;;;23.50;89.30;;;;;;5031151;28;20419;-91
2022/09/13 15:24:59;;;;;;;1.30;1.20;;;23.50;89.60;;;;;;5032119;28;20614;-91
2022/09/13 15:27:43;;;;;;;1.53;1.37;;;23.60;89.50;;;;;;5032231;28;20434;-91
2022/09/13 15:30:30;;;;;;;2.30;1.53;;;23.50;90.20;;;;;;5025946;28;20995;-91
2022/09/13 15:33:11;;;;;;;2.93;1.80;;;23.50;90.80;;;;;;5036620;28;20414;-92
2022/09/13 15:35:46;;;;;;;2.73;1.67;;;23.40;91.10;;;;;;5031682;28;20947;-90
2022/09/13 15:38:30;;;;;;;2.67;1.67;;;23.30;91.20;;;;;;5044057;28;20445;-92
2022/09/13 15:41:13;;;;;;;2.37;1.93;;;23.20;91.40;;;;;;5031600;28;20418;-91
2022/09/13 15:43:38;;;;;;;3.23;1.97;;;23.10;91.70;;;;;;5031056;28;20402;-92
2022/09/13 15:46:05;;;;;;;2.40;2.20;;;23.00;91.70;;;;;;5032579;28;21003;-91
2022/09/13 15:48:33;;;;;;;1.40;1.23;;;22.90;92.30;;;;;;5032859;28;20180;-92
2022/09/13 15:51:09;;;;;;;2.60;1.70;;;22.90;92.60;;;;;;4989475;28;1092659;-91
2022/09/13 15:53:37;;;;;;;2.60;2.40;;;22.80;92.80;;;;;;5045657;28;20414;-90
2022/09/13 15:56:04;;;;;;;4.13;2.50;;;22.70;93.00;;;;;;5032364;28;20482;-92
2022/09/13 15:58:30;;;;;;;2.20;1.53;;;22.70;93.50;;;;;;5031893;28;20594;-91
2022/09/13 16:00:56;;;;;;;2.63;1.80;;;22.60;93.50;;;;;;5032240;28;20426;-92
2022/09/13 16:03:21;;;;;;;3.87;2.27;;;22.50;93.60;;;;;;5048988;28;20422;-91
2022/09/13 16:05:47;;;;;;;3.53;1.73;;;22.50;93.90;;;;;;5032489;28;20212;-92